createdAt,value
2018-12-21T00:01:10.363Z,71.01
2018-12-21T00:03:37.767Z,71.31
2018-12-21T00:06:05.711Z,71.20
2018-12-21T00:08:33.097Z,71.08
2018-12-21T00:11:00.487Z,70.85
2018-12-21T00:13:27.928Z,71.17
2018-12-21T00:15:55.315Z,71.22
2018-12-21T00:18:22.716Z,70.93
2018-12-21T00:20:50.332Z,71.00
2018-12-21T00:23:17.727Z,70.98
2018-12-21T00:25:45.780Z,71.03
2018-12-21T00:28:13.307Z,71.23
2018-12-21T00:30:40.195Z,70.97
2018-12-21T00:33:13.186Z,71.20
2018-12-21T00:35:47.043Z,70.97
2018-12-21T00:38:20.135Z,70.80
2018-12-21T00:40:53.533Z,70.97
2018-12-21T00:43:25.279Z,71.04
2018-12-21T00:45:54.733Z,70.95
2018-12-21T00:48:22.502Z,70.73
2018-12-21T00:50:50.095Z,70.88
2018-12-21T00:53:17.799Z,70.88
2018-12-21T00:55:45.245Z,70.83
2018-12-21T00:58:12.699Z,70.93
2018-12-21T01:00:40.254Z,71.13
2018-12-21T01:03:07.655Z,71.10
2018-12-21T01:05:35.740Z,71.02
2018-12-21T01:08:03.652Z,70.93
2018-12-21T01:10:31.103Z,71.01
2018-12-21T01:12:58.624Z,71.23
2018-12-21T01:15:26.303Z,70.71
2018-12-21T01:17:53.927Z,70.93
2018-12-21T01:20:21.851Z,70.86
2018-12-21T01:22:49.315Z,70.88
2018-12-21T01:25:16.715Z,70.96
2018-12-21T01:27:44.105Z,70.92
2018-12-21T01:30:11.519Z,70.41
2018-12-21T01:32:38.927Z,70.49
2018-12-21T01:35:06.384Z,70.52
2018-12-21T01:37:33.855Z,70.28
2018-12-21T01:40:01.247Z,70.29
2018-12-21T01:42:29.291Z,70.14
2018-12-21T01:44:56.827Z,70.04
2018-12-21T01:47:24.223Z,69.57
2018-12-21T01:49:51.617Z,69.67
2018-12-21T01:52:19.077Z,69.77
2018-12-21T01:54:46.471Z,69.52
2018-12-21T01:57:14.060Z,69.87
2018-12-21T01:59:41.481Z,69.70
2018-12-21T02:02:09.174Z,69.97
2018-12-21T02:04:36.564Z,69.84
2018-12-21T02:07:04.053Z,69.49
2018-12-21T02:09:32.257Z,69.54
2018-12-21T02:11:59.840Z,69.51
2018-12-21T02:14:27.440Z,69.64
2018-12-21T02:16:55.056Z,69.46
2018-12-21T02:19:22.452Z,69.56
2018-12-21T02:21:55.861Z,69.46
2018-12-21T02:24:19.628Z,69.72
2018-12-21T02:26:47.708Z,69.47
2018-12-21T02:29:15.282Z,69.56
2018-12-21T02:31:42.716Z,69.33
2018-12-21T02:34:10.098Z,69.46
2018-12-21T02:36:37.552Z,69.23
2018-12-21T02:39:06.069Z,69.39
2018-12-21T02:41:34.402Z,69.56
2018-12-21T02:44:01.912Z,69.06
2018-12-21T02:46:29.586Z,69.15
2018-12-21T02:48:57.174Z,69.21
2018-12-21T02:51:24.957Z,69.36
2018-12-21T02:53:52.344Z,69.38
2018-12-21T02:56:19.741Z,69.43
2018-12-21T02:58:47.385Z,69.49
2018-12-21T03:01:14.891Z,69.06
2018-12-21T03:03:42.279Z,68.95
2018-12-21T03:06:09.871Z,68.98
2018-12-21T03:08:37.320Z,68.87
2018-12-21T03:11:05.193Z,69.19
2018-12-21T03:13:32.759Z,68.93
2018-12-21T03:16:00.456Z,69.27
2018-12-21T03:18:27.855Z,69.42
2018-12-21T03:20:55.272Z,69.12
2018-12-21T03:23:23.317Z,69.22
2018-12-21T03:25:51.058Z,69.29
2018-12-21T03:28:18.483Z,69.15
2018-12-21T03:30:45.878Z,69.24
2018-12-21T03:33:13.280Z,69.35
2018-12-21T03:35:40.898Z,69.06
2018-12-21T03:38:08.383Z,69.05
2018-12-21T03:40:35.783Z,69.18
2018-12-21T03:43:03.474Z,69.45
2018-12-21T03:45:30.867Z,69.13
2018-12-21T03:47:58.268Z,69.45
2018-12-21T03:50:25.678Z,69.45
2018-12-21T03:52:53.101Z,69.34
2018-12-21T03:55:20.545Z,69.66
2018-12-21T03:57:48.004Z,69.45
2018-12-21T04:00:16.007Z,69.68
2018-12-21T04:02:43.596Z,69.47
2018-12-21T04:05:11.189Z,69.32
2018-12-21T04:07:38.584Z,69.72
2018-12-21T04:10:06.040Z,69.56
2018-12-21T04:12:33.468Z,69.60
2018-12-21T04:15:00.859Z,69.81
2018-12-21T04:17:29.147Z,69.80
2018-12-21T04:19:56.827Z,69.58
2018-12-21T04:22:33.785Z,69.46
2018-12-21T04:24:53.714Z,69.75
2018-12-21T04:27:21.133Z,69.83
2018-12-21T04:29:48.529Z,69.79
2018-12-21T04:32:15.926Z,69.75
2018-12-21T04:34:43.442Z,69.96
2018-12-21T04:37:10.834Z,69.74
2018-12-21T04:39:38.225Z,69.65
2018-12-21T04:42:05.667Z,69.78
2018-12-21T04:44:33.059Z,69.49
2018-12-21T04:47:00.990Z,69.73
2018-12-21T04:49:28.555Z,69.53
2018-12-21T04:51:55.944Z,69.46
2018-12-21T04:54:23.344Z,69.43
2018-12-21T04:56:51.037Z,69.69
2018-12-21T04:59:18.427Z,69.59
2018-12-21T05:01:45.831Z,69.45
2018-12-21T05:04:19.879Z,69.45
2018-12-21T05:06:43.405Z,69.39
2018-12-21T05:09:10.857Z,69.35
2018-12-21T05:11:38.374Z,69.03
2018-12-21T05:14:07.901Z,69.37
2018-12-21T05:16:35.163Z,69.10
2018-12-21T05:19:02.801Z,69.01
2018-12-21T05:21:30.235Z,69.08
2018-12-21T05:23:57.627Z,68.49
2018-12-21T05:26:25.129Z,68.78
2018-12-21T05:28:52.508Z,68.68
2018-12-21T05:31:28.077Z,68.78
2018-12-21T05:33:49.329Z,68.58
2018-12-21T05:36:16.884Z,68.56
2018-12-21T05:38:44.280Z,68.53
2018-12-21T05:41:11.953Z,68.32
2018-12-21T05:43:39.740Z,68.06
2018-12-21T05:46:07.160Z,67.95
2018-12-21T05:48:34.825Z,68.13
2018-12-21T05:51:02.219Z,68.00
2018-12-21T05:53:29.608Z,67.96
2018-12-21T05:55:57.192Z,67.86
2018-12-21T05:58:24.600Z,67.84
2018-12-21T06:00:51.990Z,67.57
2018-12-21T06:03:19.458Z,67.51
2018-12-21T06:05:46.929Z,67.53
2018-12-21T06:08:14.326Z,67.74
2018-12-21T06:10:42.033Z,67.32
2018-12-21T06:13:09.424Z,67.17
2018-12-21T06:15:37.412Z,67.12
2018-12-21T06:18:05.100Z,66.91
2018-12-21T06:20:32.553Z,67.24
2018-12-21T06:23:00.033Z,66.94
2018-12-21T06:25:27.730Z,67.28
2018-12-21T06:27:55.116Z,67.18
2018-12-21T06:30:22.816Z,66.97
2018-12-21T06:32:50.274Z,66.95
2018-12-21T06:35:17.986Z,66.92
2018-12-21T06:37:45.396Z,66.86
2018-12-21T06:40:13.049Z,66.99
2018-12-21T06:42:40.770Z,66.86
2018-12-21T06:45:08.281Z,67.17
2018-12-21T06:47:35.834Z,66.76
2018-12-21T06:50:04.074Z,66.59
2018-12-21T06:52:31.459Z,66.94
2018-12-21T06:54:59.224Z,66.72
2018-12-21T06:57:26.684Z,66.57
2018-12-21T06:59:54.086Z,66.62
2018-12-21T07:02:21.512Z,66.29
2018-12-21T07:04:49.315Z,66.33
2018-12-21T07:07:16.703Z,66.45
2018-12-21T07:09:44.280Z,66.11
2018-12-21T07:12:11.684Z,66.00
2018-12-21T07:14:39.089Z,66.38
2018-12-21T07:17:06.855Z,66.04
2018-12-21T07:19:34.251Z,65.98
2018-12-21T07:22:01.654Z,66.10
2018-12-21T07:24:29.227Z,66.01
2018-12-21T07:26:56.623Z,66.08
2018-12-21T07:29:24.799Z,65.94
2018-12-21T07:31:52.891Z,66.27
2018-12-21T07:34:20.283Z,66.20
2018-12-21T07:36:47.734Z,66.35
2018-12-21T07:39:15.439Z,66.36
2018-12-21T07:41:43.019Z,66.31
2018-12-21T07:44:10.422Z,66.10
2018-12-21T07:46:37.880Z,66.02
2018-12-21T07:49:05.274Z,65.94
2018-12-21T07:51:32.665Z,66.13
2018-12-21T07:54:00.243Z,65.84
2018-12-21T07:56:27.635Z,65.81
2018-12-21T07:58:57.318Z,66.02
2018-12-21T08:01:24.560Z,65.95
2018-12-21T08:03:51.968Z,65.92
2018-12-21T08:06:20.216Z,65.84
2018-12-21T08:08:47.754Z,65.97
2018-12-21T08:11:15.203Z,65.44
2018-12-21T08:13:43.017Z,65.70
2018-12-21T08:16:10.529Z,65.71
2018-12-21T08:18:37.923Z,65.90
2018-12-21T08:21:05.327Z,65.69
2018-12-21T08:23:32.743Z,65.57
2018-12-21T08:26:00.141Z,65.33
2018-12-21T08:28:27.539Z,64.95
2018-12-21T08:30:55.451Z,65.06
2018-12-21T08:33:22.910Z,64.85
2018-12-21T08:35:50.431Z,64.44
2018-12-21T08:38:18.148Z,64.74
2018-12-21T08:40:45.545Z,64.53
2018-12-21T08:43:13.463Z,64.42
2018-12-21T08:45:41.135Z,64.34
2018-12-21T08:48:08.722Z,64.10
2018-12-21T08:50:36.317Z,63.92
2018-12-21T08:53:04.021Z,64.17
2018-12-21T08:55:31.424Z,64.07
2018-12-21T08:57:58.826Z,63.91
2018-12-21T09:00:26.287Z,64.12
2018-12-21T09:02:54.299Z,63.58
2018-12-21T09:05:21.698Z,63.44
2018-12-21T09:07:49.270Z,63.45
2018-12-21T09:10:16.979Z,63.72
2018-12-21T09:12:44.377Z,63.47
2018-12-21T09:15:12.769Z,63.26
2018-12-21T09:17:40.170Z,63.42
2018-12-21T09:20:10.289Z,63.19
2018-12-21T09:22:38.009Z,63.19
2018-12-21T09:25:05.531Z,63.17
2018-12-21T09:27:32.948Z,63.58
2018-12-21T09:30:01.707Z,63.21
2018-12-21T09:32:29.103Z,63.20
2018-12-21T09:34:56.489Z,63.53
2018-12-21T09:37:23.903Z,63.03
2018-12-21T09:39:51.509Z,63.38
2018-12-21T09:42:19.183Z,63.11
2018-12-21T09:44:52.478Z,62.81
2018-12-21T09:47:16.052Z,62.79
2018-12-21T09:49:43.448Z,62.59
2018-12-21T09:52:11.169Z,61.90
2018-12-21T09:54:38.638Z,61.75
2018-12-21T09:57:06.020Z,61.71
2018-12-21T09:59:33.635Z,61.42
2018-12-21T10:02:01.157Z,61.12
2018-12-21T10:04:28.636Z,60.71
2018-12-21T10:06:56.429Z,61.01
2018-12-21T10:09:23.818Z,60.97
2018-12-21T10:11:51.235Z,60.88
2018-12-21T10:14:18.908Z,60.71
2018-12-21T10:16:46.303Z,60.41
2018-12-21T10:19:13.692Z,60.44
2018-12-21T10:21:41.140Z,60.00
2018-12-21T10:24:08.516Z,60.24
2018-12-21T10:26:36.628Z,60.14
2018-12-21T10:29:04.261Z,59.83
2018-12-21T10:31:31.916Z,59.33
2018-12-21T10:33:59.306Z,59.37
2018-12-21T10:36:26.941Z,59.34
2018-12-21T10:38:54.644Z,58.91
2018-12-21T10:41:22.100Z,59.20
2018-12-21T10:43:49.614Z,58.98
2018-12-21T10:46:17.365Z,58.96
2018-12-21T10:48:44.752Z,58.76
2018-12-21T10:51:12.284Z,58.59
2018-12-21T10:53:39.767Z,57.96
2018-12-21T10:56:07.979Z,57.62
2018-12-21T10:58:35.428Z,57.34
2018-12-21T11:01:02.880Z,57.37
2018-12-21T11:03:30.732Z,57.37
2018-12-21T11:05:58.265Z,57.94
2018-12-21T11:08:25.913Z,57.86
2018-12-21T11:10:53.351Z,58.06
2018-12-21T11:13:20.936Z,57.79
2018-12-21T11:15:48.342Z,58.28
2018-12-21T11:18:15.756Z,58.07
2018-12-21T11:20:43.308Z,57.78
2018-12-21T11:23:10.713Z,57.74
2018-12-21T11:25:38.121Z,58.06
2018-12-21T11:28:05.895Z,57.83
2018-12-21T11:30:33.704Z,58.06
2018-12-21T11:33:01.112Z,58.11
2018-12-21T11:35:28.535Z,58.12
2018-12-21T11:37:55.965Z,58.36
2018-12-21T11:40:23.364Z,58.41
2018-12-21T11:42:51.030Z,58.45
2018-12-21T11:45:18.428Z,58.12
2018-12-21T11:47:45.973Z,58.54
2018-12-21T11:50:14.069Z,58.69
2018-12-21T11:52:41.460Z,58.48
2018-12-21T11:55:08.867Z,58.46
2018-12-21T11:57:36.288Z,58.52
2018-12-21T12:00:05.523Z,58.99
2018-12-21T12:02:32.995Z,58.85
2018-12-21T12:05:00.690Z,58.46
2018-12-21T12:07:28.081Z,59.18
2018-12-21T12:09:55.968Z,58.92
2018-12-21T12:12:23.431Z,59.61
2018-12-21T12:14:50.840Z,59.49
2018-12-21T12:17:18.828Z,59.49
2018-12-21T12:19:47.190Z,59.56
2018-12-21T12:22:14.594Z,59.59
2018-12-21T12:24:41.984Z,59.37
2018-12-21T12:27:09.512Z,58.96
2018-12-21T12:29:37.016Z,58.77
2018-12-21T12:32:04.462Z,58.24
2018-12-21T12:34:32.031Z,58.38
2018-12-21T12:36:59.423Z,57.70
2018-12-21T12:39:26.827Z,58.05
2018-12-21T12:41:54.507Z,57.70
2018-12-21T12:44:21.901Z,57.58
2018-12-21T12:46:49.305Z,57.35
2018-12-21T12:49:16.727Z,57.19
2018-12-21T12:51:44.128Z,56.64
2018-12-21T12:54:11.524Z,56.23
2018-12-21T12:56:39.125Z,56.19
2018-12-21T12:59:06.546Z,55.93
2018-12-21T13:01:33.929Z,56.18
2018-12-21T13:04:01.608Z,56.23
2018-12-21T13:06:29.056Z,55.66
2018-12-21T13:08:56.500Z,55.94
2018-12-21T13:11:24.142Z,55.92
2018-12-21T13:13:51.902Z,55.94
2018-12-21T13:16:19.300Z,56.11
2018-12-21T13:18:46.748Z,56.30
2018-12-21T13:21:14.140Z,56.31
2018-12-21T13:23:41.536Z,56.80
2018-12-21T13:26:09.000Z,56.62
2018-12-21T13:28:36.542Z,56.36
2018-12-21T13:31:04.021Z,56.48
2018-12-21T13:33:31.691Z,56.18
2018-12-21T13:35:59.393Z,56.10
2018-12-21T13:38:26.804Z,56.18
2018-12-21T13:40:54.484Z,55.77
2018-12-21T13:43:21.885Z,55.79
2018-12-21T13:45:49.796Z,55.42
2018-12-21T13:48:17.232Z,55.32
2018-12-21T13:50:44.902Z,55.29
2018-12-21T13:53:12.605Z,55.16
2018-12-21T13:55:40.148Z,54.78
2018-12-21T13:58:07.956Z,54.83
2018-12-21T14:00:35.354Z,54.54
2018-12-21T14:03:02.763Z,54.77
2018-12-21T14:05:30.461Z,55.05
2018-12-21T14:07:57.848Z,54.94
2018-12-21T14:10:25.304Z,54.90
2018-12-21T14:12:52.697Z,54.94
2018-12-21T14:15:20.089Z,54.96
2018-12-21T14:17:47.784Z,54.92
2018-12-21T14:20:15.197Z,54.78
2018-12-21T14:22:43.509Z,54.68
2018-12-21T14:25:11.040Z,55.47
2018-12-21T14:27:38.436Z,55.92
2018-12-21T14:30:07.452Z,56.75
2018-12-21T14:32:35.073Z,57.01
2018-12-21T14:35:03.375Z,58.00
2018-12-21T14:37:30.771Z,58.34
2018-12-21T14:39:58.374Z,58.95
2018-12-21T14:42:25.819Z,59.68
2018-12-21T14:44:53.216Z,60.38
2018-12-21T14:47:20.941Z,61.06
2018-12-21T14:49:48.331Z,61.16
2018-12-21T14:52:15.730Z,61.77
2018-12-21T14:54:43.317Z,62.02
2018-12-21T14:57:11.638Z,63.17
2018-12-21T14:59:39.032Z,63.23
2018-12-21T15:02:06.599Z,63.70
2018-12-21T15:04:34.407Z,63.82
2018-12-21T15:07:01.820Z,64.47
2018-12-21T15:09:29.589Z,64.41
2018-12-21T15:11:57.100Z,65.05
2018-12-21T15:14:24.604Z,64.93
2018-12-21T15:16:52.036Z,65.30
2018-12-21T15:19:20.159Z,65.25
2018-12-21T15:21:47.566Z,65.45
2018-12-21T15:24:15.364Z,66.02
2018-12-21T15:26:42.760Z,65.64
2018-12-21T15:29:10.151Z,65.79
2018-12-21T15:31:37.827Z,66.20
2018-12-21T15:34:05.232Z,66.15
2018-12-21T15:36:33.203Z,66.11
2018-12-21T15:39:00.832Z,66.37
2018-12-21T15:41:28.226Z,66.40
2018-12-21T15:43:55.618Z,66.51
2018-12-21T15:46:23.184Z,66.94
2018-12-21T15:48:50.574Z,66.96
2018-12-21T15:51:17.994Z,66.96
2018-12-21T15:53:45.423Z,66.95
2018-12-21T15:56:12.816Z,67.54
2018-12-21T15:58:40.800Z,67.62
2018-12-21T16:01:08.219Z,67.51
2018-12-21T16:03:35.944Z,67.60
2018-12-21T16:06:03.352Z,67.81
2018-12-21T16:08:31.031Z,67.98
2018-12-21T16:10:58.707Z,68.59
2018-12-21T16:13:26.223Z,68.49
2018-12-21T16:15:53.649Z,68.86
2018-12-21T16:18:21.057Z,68.89
2018-12-21T16:20:48.455Z,69.16
2018-12-21T16:23:15.875Z,69.30
2018-12-21T16:25:43.303Z,69.07
2018-12-21T16:28:10.701Z,69.49
2018-12-21T16:30:38.141Z,69.59
2018-12-21T16:33:05.537Z,69.74
2018-12-21T16:35:32.934Z,69.68
2018-12-21T16:38:00.609Z,69.78
2018-12-21T16:40:28.006Z,69.94
2018-12-21T16:42:55.460Z,69.84
2018-12-21T16:45:23.063Z,69.97
2018-12-21T16:47:50.464Z,70.33
2018-12-21T16:50:17.988Z,70.11
2018-12-21T16:52:45.548Z,70.57
2018-12-21T16:55:12.944Z,70.62
2018-12-21T16:57:41.126Z,70.33
2018-12-21T17:00:10.974Z,70.63
2018-12-21T17:02:38.369Z,70.67
2018-12-21T17:05:06.479Z,70.68
2018-12-21T17:07:34.078Z,70.74
2018-12-21T17:10:01.987Z,70.82
2018-12-21T17:12:29.383Z,70.98
2018-12-21T17:14:56.964Z,70.73
2018-12-21T17:17:24.371Z,70.79
2018-12-21T17:19:52.448Z,71.04
2018-12-21T17:22:20.059Z,71.02
2018-12-21T17:24:47.679Z,70.95
2018-12-21T17:27:15.059Z,70.71
2018-12-21T17:29:42.476Z,70.50
2018-12-21T17:32:09.872Z,70.93
2018-12-21T17:34:37.265Z,70.78
2018-12-21T17:37:04.781Z,70.94
2018-12-21T17:39:33.071Z,70.70
2018-12-21T17:42:00.519Z,70.94
2018-12-21T17:44:28.070Z,71.23
2018-12-21T17:46:55.547Z,70.85
2018-12-21T17:49:23.088Z,71.07
2018-12-21T17:51:50.748Z,71.01
2018-12-21T17:54:18.144Z,71.28
2018-12-21T17:56:45.544Z,71.06
2018-12-21T17:59:14.428Z,71.42
2018-12-21T18:01:42.159Z,71.46
2018-12-21T18:04:10.089Z,71.23
2018-12-21T18:06:37.503Z,71.27
2018-12-21T18:09:06.421Z,71.39
2018-12-21T18:11:34.739Z,71.59
2018-12-21T18:14:02.345Z,71.75
2018-12-21T18:16:30.163Z,71.58
2018-12-21T18:18:57.769Z,71.56
2018-12-21T18:21:25.639Z,71.55
2018-12-21T18:23:53.022Z,71.46
2018-12-21T18:26:20.431Z,71.59
2018-12-21T18:28:47.880Z,71.90
2018-12-21T18:31:15.694Z,71.74
2018-12-21T18:33:44.809Z,71.72
2018-12-21T18:36:12.349Z,71.65
2018-12-21T18:38:39.747Z,71.60
2018-12-21T18:41:07.144Z,71.76
2018-12-21T18:43:34.565Z,71.56
2018-12-21T18:46:01.948Z,71.74
2018-12-21T18:48:29.360Z,71.79
2018-12-21T18:50:56.823Z,71.71
2018-12-21T18:53:24.223Z,71.52
2018-12-21T18:55:51.866Z,71.40
2018-12-21T18:58:19.399Z,71.37
2018-12-21T19:00:46.825Z,71.68
2018-12-21T19:03:17.719Z,71.41
2018-12-21T19:05:47.874Z,71.42
2018-12-21T19:08:27.230Z,71.26
2018-12-21T19:10:56.479Z,71.35
2018-12-21T19:13:24.271Z,71.39
2018-12-21T19:15:51.729Z,70.99
2018-12-21T19:18:19.151Z,70.84
2018-12-21T19:20:47.207Z,71.34
2018-12-21T19:23:14.603Z,71.17
2018-12-21T19:25:42.971Z,70.97
2018-12-21T19:28:11.829Z,70.98
2018-12-21T19:30:39.227Z,70.75
2018-12-21T19:33:06.875Z,70.82
2018-12-21T19:35:34.352Z,70.67
2018-12-21T19:38:01.746Z,70.77
2018-12-21T19:40:29.274Z,70.59
2018-12-21T19:42:56.668Z,70.17
2018-12-21T19:45:24.055Z,70.22
2018-12-21T19:47:51.650Z,70.18
2018-12-21T19:50:19.053Z,70.56
2018-12-21T19:52:46.447Z,70.08
2018-12-21T19:55:18.211Z,70.12
2018-12-21T19:57:46.403Z,70.19
2018-12-21T20:00:13.799Z,70.19
2018-12-21T20:02:41.393Z,70.50
2018-12-21T20:05:08.789Z,70.55
2018-12-21T20:07:36.184Z,70.44
2018-12-21T20:10:05.042Z,70.33
2018-12-21T20:12:32.627Z,70.31
2018-12-21T20:15:00.247Z,70.38
2018-12-21T20:17:27.777Z,70.55
2018-12-21T20:19:55.189Z,70.25
2018-12-21T20:22:22.584Z,70.47
2018-12-21T20:24:51.667Z,70.37
2018-12-21T20:27:21.246Z,70.14
2018-12-21T20:29:50.085Z,70.34
2018-12-21T20:32:18.677Z,70.28
2018-12-21T20:34:56.557Z,70.26
2018-12-21T20:37:27.149Z,70.16
2018-12-21T20:39:54.549Z,70.09
2018-12-21T20:42:21.951Z,70.39
2018-12-21T20:44:49.560Z,70.06
2018-12-21T20:47:17.321Z,69.87
2018-12-21T20:49:44.739Z,69.61
2018-12-21T20:52:12.760Z,69.47
2018-12-21T20:54:40.346Z,69.67
2018-12-21T20:57:09.204Z,69.72
2018-12-21T20:59:36.911Z,69.72
2018-12-21T21:02:04.694Z,69.32
2018-12-21T21:04:32.088Z,69.30
2018-12-21T21:06:59.555Z,69.32
2018-12-21T21:09:27.350Z,69.57
2018-12-21T21:11:54.954Z,69.48
2018-12-21T21:14:22.528Z,69.64
2018-12-21T21:16:49.987Z,69.39
2018-12-21T21:19:17.396Z,69.46
2018-12-21T21:21:44.853Z,69.43
2018-12-21T21:24:12.614Z,69.34
2018-12-21T21:26:40.007Z,69.17
2018-12-21T21:29:07.797Z,69.05
2018-12-21T21:31:35.249Z,69.46
2018-12-21T21:34:02.643Z,69.25
2018-12-21T21:36:30.351Z,69.34
2018-12-21T21:38:57.751Z,69.19
2018-12-21T21:41:25.163Z,69.16
2018-12-21T21:43:52.905Z,69.17
2018-12-21T21:46:20.289Z,68.98
2018-12-21T21:48:47.691Z,69.30
2018-12-21T21:51:15.142Z,69.35
2018-12-21T21:53:42.547Z,68.95
2018-12-21T21:56:09.932Z,69.14
2018-12-21T21:58:37.952Z,69.19
2018-12-21T22:01:05.345Z,69.36
2018-12-21T22:03:33.286Z,69.35
2018-12-21T22:06:00.736Z,69.49
2018-12-21T22:08:28.129Z,69.30
2018-12-21T22:11:01.838Z,69.60
2018-12-21T22:13:25.083Z,69.63
2018-12-21T22:15:53.007Z,69.50
2018-12-21T22:18:20.699Z,69.97
2018-12-21T22:20:48.195Z,70.21
2018-12-21T22:23:16.504Z,70.20
2018-12-21T22:25:53.143Z,70.23
2018-12-21T22:28:14.117Z,70.38
2018-12-21T22:30:41.515Z,70.41
2018-12-21T22:33:08.905Z,70.63
2018-12-21T22:35:36.489Z,70.77
2018-12-21T22:38:03.885Z,70.90
2018-12-21T22:40:31.277Z,70.68
2018-12-21T22:42:58.858Z,70.72
2018-12-21T22:45:26.259Z,70.88
2018-12-21T22:47:53.648Z,70.95
2018-12-21T22:50:21.216Z,70.94
2018-12-21T22:52:49.015Z,70.93
2018-12-21T22:55:16.398Z,71.22
2018-12-21T22:57:44.000Z,71.34
2018-12-21T23:00:14.874Z,71.51
2018-12-21T23:02:42.276Z,71.16
2018-12-21T23:05:10.678Z,71.18
2018-12-21T23:07:38.076Z,71.62
2018-12-21T23:10:07.289Z,71.55
2018-12-21T23:12:34.894Z,71.72
2018-12-21T23:15:02.308Z,71.65
2018-12-21T23:17:29.696Z,71.46
2018-12-21T23:19:57.361Z,71.57
2018-12-21T23:22:24.752Z,71.59
2018-12-21T23:24:52.143Z,71.61
2018-12-21T23:27:19.640Z,71.59
2018-12-21T23:29:47.062Z,71.61
2018-12-21T23:32:14.443Z,71.73
2018-12-21T23:34:42.003Z,71.56
2018-12-21T23:37:09.402Z,71.73
2018-12-21T23:39:36.792Z,71.96
2018-12-21T23:42:04.380Z,71.82
2018-12-21T23:44:32.622Z,72.04
2018-12-21T23:47:00.004Z,72.10
2018-12-21T23:49:27.576Z,71.90
2018-12-21T23:51:54.968Z,72.01
2018-12-21T23:54:22.368Z,71.81
2018-12-21T23:56:49.936Z,71.86
2018-12-21T23:59:17.364Z,72.16
